This is the latest recevied weather packets stored in our database for station/object KF0EZB. If no packets are shown the sender has not sent any weather packets the latest 1 day(s).
| Time | Temp. | Humidity | Pressure | Rain* | Wind** | Luminosity | Snow |
|---|---|---|---|---|---|---|---|
| 1778112345 | 12.22° C | 61% | 1018.2 hPa | 0 mm | - | 56 W/m² | - |
| 1778110525 | 12.78° C | 58% | 1018.4 hPa | 0 mm | - | 131 W/m² | - |
| 1778110222 | 12.78° C | 56% | 1018.2 hPa | 0 mm | - | 131 W/m² | - |
| 1778109918 | 13.33° C | 56% | 1018.3 hPa | 0 mm | - | 208 W/m² | - |
| 1778107189 | 12.22° C | 58% | 1018.2 hPa | 0 mm | - | 115 W/m² | - |
| 1778106885 | 12.78° C | 59% | 1018.3 hPa | 0 mm | - | 107 W/m² | - |
| 1778106279 | 12.78° C | 56% | 1018.3 hPa | 0 mm | - | 132 W/m² | - |
| 1778100818 | 14.44° C | 58% | 1019.2 hPa | 0 mm | - | 731 W/m² | - |
| 1778098395 | 12.22° C | 67% | 1019.5 hPa | 0 mm | - | 610 W/m² | - |
| 1778096878 | 11.11° C | 69% | 1019.5 hPa | 0 mm | - | 540 W/m² | - |
| 1778096574 | 11.67° C | 70% | 1019.7 hPa | 0 mm | - | 497 W/m² | - |
| 1778095362 | 11.67° C | 67% | 1019.8 hPa | 0 mm | - | 273 W/m² | - |
| 1778094755 | 11.11° C | 66% | 1019.8 hPa | 0 mm | - | 372 W/m² | - |
| 1778089905 | 10° C | 78% | 1020.2 hPa | 0 mm | - | 246 W/m² | - |
| 1778089598 | 10° C | 78% | 1020.1 hPa | 0 mm | - | 201 W/m² | - |
| 1778089294 | 10.56° C | 79% | 1020.2 hPa | 0 mm | - | 338 W/m² | - |
| 1778086570 | 8.89° C | 84% | 1020.8 hPa | 0 mm | - | 163 W/m² | - |
| 1778085963 | 8.33° C | 84% | 1020.6 hPa | 0 mm | - | 226 W/m² | - |
| 1778083223 | 6.67° C | 98% | 1020.1 hPa | 0 mm | - | 317 W/m² | - |
| 1778081818 | 6.11° C | 99% | 1020.1 hPa | 0 mm | - | 160 W/m² | - |
| 1778077882 | 5.56° C | 99% | 1020.1 hPa | 0 mm | - | 59 W/m² | - |
| 1778077278 | 5.56° C | 99% | 1019.9 hPa | 0 mm | - | 58 W/m² | - |
| 1778076975 | 5.56° C | 99% | 1019.9 hPa | 0 mm | - | 56 W/m² | - |
| 1778073642 | 5.56° C | 99% | 1019.1 hPa | 1.78 mm | - | 51 W/m² | - |
| 1778073035 | 5.56° C | 99% | 1019 hPa | 0 mm | - | 23 W/m² | - |
* Rain latest hour (hover to see other rain measurements)
** Current wind speed in m/s (hover to see current wind gust speed)